sensor_id;sensor_type;location;lat;lon;timestamp;temperature;humidity
2913;DHT22;1466;48.778;9.166;2024-02-26T00:00:28;11.00;84.90
2913;DHT22;1466;48.778;9.166;2024-02-26T00:02:54;11.00;85.00
2913;DHT22;1466;48.778;9.166;2024-02-26T00:05:20;10.90;85.30
2913;DHT22;1466;48.778;9.166;2024-02-26T00:07:45;11.00;85.40
2913;DHT22;1466;48.778;9.166;2024-02-26T00:10:13;11.00;85.30
2913;DHT22;1466;48.778;9.166;2024-02-26T00:12:38;11.00;85.30
2913;DHT22;1466;48.778;9.166;2024-02-26T00:15:08;10.90;85.20
2913;DHT22;1466;48.778;9.166;2024-02-26T00:17:33;10.90;85.10
2913;DHT22;1466;48.778;9.166;2024-02-26T00:19:59;10.90;84.80
2913;DHT22;1466;48.778;9.166;2024-02-26T00:22:26;10.80;84.70
2913;DHT22;1466;48.778;9.166;2024-02-26T00:24:51;10.80;84.40
2913;DHT22;1466;48.778;9.166;2024-02-26T00:27:17;10.80;84.40
2913;DHT22;1466;48.778;9.166;2024-02-26T00:29:43;10.90;84.40
2913;DHT22;1466;48.778;9.166;2024-02-26T00:32:09;10.90;84.20
2913;DHT22;1466;48.778;9.166;2024-02-26T00:34:34;10.90;84.00
2913;DHT22;1466;48.778;9.166;2024-02-26T00:37:01;10.90;83.90
2913;DHT22;1466;48.778;9.166;2024-02-26T00:39:26;10.90;83.80
2913;DHT22;1466;48.778;9.166;2024-02-26T00:41:52;11.00;83.90
2913;DHT22;1466;48.778;9.166;2024-02-26T00:44:17;10.90;83.90
2913;DHT22;1466;48.778;9.166;2024-02-26T00:46:43;11.00;84.00
2913;DHT22;1466;48.778;9.166;2024-02-26T00:49:09;11.00;84.00
2913;DHT22;1466;48.778;9.166;2024-02-26T00:51:37;11.10;83.90
2913;DHT22;1466;48.778;9.166;2024-02-26T00:54:02;11.00;83.90
2913;DHT22;1466;48.778;9.166;2024-02-26T00:56:28;11.00;84.10
2913;DHT22;1466;48.778;9.166;2024-02-26T00:58:53;11.00;84.30
2913;DHT22;1466;48.778;9.166;2024-02-26T01:01:19;11.00;84.20
2913;DHT22;1466;48.778;9.166;2024-02-26T01:03:45;10.90;84.20
2913;DHT22;1466;48.778;9.166;2024-02-26T01:06:10;10.90;84.40
2913;DHT22;1466;48.778;9.166;2024-02-26T01:08:36;10.90;84.30
2913;DHT22;1466;48.778;9.166;2024-02-26T01:11:03;10.90;84.30
2913;DHT22;1466;48.778;9.166;2024-02-26T01:13:28;10.80;84.50
2913;DHT22;1466;48.778;9.166;2024-02-26T01:15:54;10.80;84.70
2913;DHT22;1466;48.778;9.166;2024-02-26T01:18:20;10.70;84.60
2913;DHT22;1466;48.778;9.166;2024-02-26T01:20:48;10.70;84.70
2913;DHT22;1466;48.778;9.166;2024-02-26T01:23:14;10.70;84.40
2913;DHT22;1466;48.778;9.166;2024-02-26T01:25:39;10.70;84.50
2913;DHT22;1466;48.778;9.166;2024-02-26T01:28:05;10.70;84.60
2913;DHT22;1466;48.778;9.166;2024-02-26T01:30:31;10.80;84.60
2913;DHT22;1466;48.778;9.166;2024-02-26T01:32:57;10.80;84.40
2913;DHT22;1466;48.778;9.166;2024-02-26T01:35:22;10.90;84.40
2913;DHT22;1466;48.778;9.166;2024-02-26T01:37:48;10.90;84.20
2913;DHT22;1466;48.778;9.166;2024-02-26T01:40:14;10.90;84.20
2913;DHT22;1466;48.778;9.166;2024-02-26T01:42:45;10.90;84.20
2913;DHT22;1466;48.778;9.166;2024-02-26T01:45:15;10.90;84.10
2913;DHT22;1466;48.778;9.166;2024-02-26T01:47:41;10.90;84.30
2913;DHT22;1466;48.778;9.166;2024-02-26T01:50:08;10.90;84.60
2913;DHT22;1466;48.778;9.166;2024-02-26T01:52:34;10.90;84.60
2913;DHT22;1466;48.778;9.166;2024-02-26T01:54:59;10.90;84.60
2913;DHT22;1466;48.778;9.166;2024-02-26T01:57:27;10.90;84.90
2913;DHT22;1466;48.778;9.166;2024-02-26T01:59:53;11.00;85.30
2913;DHT22;1466;48.778;9.166;2024-02-26T02:02:19;10.90;85.30
2913;DHT22;1466;48.778;9.166;2024-02-26T02:04:46;10.90;85.40
2913;DHT22;1466;48.778;9.166;2024-02-26T02:07:12;10.90;85.60
2913;DHT22;1466;48.778;9.166;2024-02-26T02:09:38;10.90;85.80
2913;DHT22;1466;48.778;9.166;2024-02-26T02:12:04;10.90;85.60
2913;DHT22;1466;48.778;9.166;2024-02-26T02:14:30;10.90;85.50
2913;DHT22;1466;48.778;9.166;2024-02-26T02:16:56;10.90;85.40
2913;DHT22;1466;48.778;9.166;2024-02-26T02:19:21;10.90;85.10
2913;DHT22;1466;48.778;9.166;2024-02-26T02:21:47;10.80;85.60
2913;DHT22;1466;48.778;9.166;2024-02-26T02:24:12;10.80;84.70
2913;DHT22;1466;48.778;9.166;2024-02-26T02:26:38;10.80;84.60
2913;DHT22;1466;48.778;9.166;2024-02-26T02:29:06;10.80;84.30
2913;DHT22;1466;48.778;9.166;2024-02-26T02:31:32;10.70;84.10
2913;DHT22;1466;48.778;9.166;2024-02-26T02:33:58;10.70;84.10
2913;DHT22;1466;48.778;9.166;2024-02-26T02:36:24;10.70;83.90
2913;DHT22;1466;48.778;9.166;2024-02-26T02:38:50;10.70;83.40
2913;DHT22;1466;48.778;9.166;2024-02-26T02:41:16;10.80;83.20
2913;DHT22;1466;48.778;9.166;2024-02-26T02:43:42;10.80;82.50
2913;DHT22;1466;48.778;9.166;2024-02-26T02:46:07;10.90;81.40
2913;DHT22;1466;48.778;9.166;2024-02-26T02:48:33;10.80;80.90
2913;DHT22;1466;48.778;9.166;2024-02-26T02:50:59;10.80;81.60
2913;DHT22;1466;48.778;9.166;2024-02-26T02:53:24;10.80;80.80
2913;DHT22;1466;48.778;9.166;2024-02-26T02:55:50;10.80;80.70
2913;DHT22;1466;48.778;9.166;2024-02-26T02:58:16;10.80;80.90
2913;DHT22;1466;48.778;9.166;2024-02-26T03:00:41;10.90;80.60
2913;DHT22;1466;48.778;9.166;2024-02-26T03:03:07;10.90;80.40
2913;DHT22;1466;48.778;9.166;2024-02-26T03:05:32;10.90;80.30
2913;DHT22;1466;48.778;9.166;2024-02-26T03:07:58;11.00;80.20
2913;DHT22;1466;48.778;9.166;2024-02-26T03:10:23;11.00;80.10
2913;DHT22;1466;48.778;9.166;2024-02-26T03:12:50;10.90;79.90
2913;DHT22;1466;48.778;9.166;2024-02-26T03:15:15;10.90;81.00
2913;DHT22;1466;48.778;9.166;2024-02-26T03:17:41;10.90;80.70
2913;DHT22;1466;48.778;9.166;2024-02-26T03:20:07;10.90;80.80
2913;DHT22;1466;48.778;9.166;2024-02-26T03:22:34;10.90;80.80
2913;DHT22;1466;48.778;9.166;2024-02-26T03:24:59;10.90;80.90
2913;DHT22;1466;48.778;9.166;2024-02-26T03:27:25;11.00;81.20
2913;DHT22;1466;48.778;9.166;2024-02-26T03:29:50;11.00;81.10
2913;DHT22;1466;48.778;9.166;2024-02-26T03:32:16;11.00;81.10
2913;DHT22;1466;48.778;9.166;2024-02-26T03:34:42;11.10;81.10
2913;DHT22;1466;48.778;9.166;2024-02-26T03:37:07;11.00;81.00
2913;DHT22;1466;48.778;9.166;2024-02-26T03:39:35;11.10;81.30
2913;DHT22;1466;48.778;9.166;2024-02-26T03:42:01;11.10;81.30
2913;DHT22;1466;48.778;9.166;2024-02-26T03:44:27;11.20;81.30
2913;DHT22;1466;48.778;9.166;2024-02-26T03:46:53;11.10;81.60
2913;DHT22;1466;48.778;9.166;2024-02-26T03:49:18;11.00;82.20
2913;DHT22;1466;48.778;9.166;2024-02-26T03:51:44;11.00;82.70
2913;DHT22;1466;48.778;9.166;2024-02-26T03:54:10;11.00;82.90
2913;DHT22;1466;48.778;9.166;2024-02-26T03:56:35;10.90;83.50
2913;DHT22;1466;48.778;9.166;2024-02-26T03:59:01;10.80;84.70
2913;DHT22;1466;48.778;9.166;2024-02-26T04:01:28;10.60;85.50
2913;DHT22;1466;48.778;9.166;2024-02-26T04:03:54;10.50;86.50
2913;DHT22;1466;48.778;9.166;2024-02-26T04:06:19;10.40;87.80
2913;DHT22;1466;48.778;9.166;2024-02-26T04:08:46;10.30;88.40
2913;DHT22;1466;48.778;9.166;2024-02-26T04:11:12;10.30;88.90
2913;DHT22;1466;48.778;9.166;2024-02-26T04:13:38;10.30;89.00
2913;DHT22;1466;48.778;9.166;2024-02-26T04:16:05;10.30;89.40
2913;DHT22;1466;48.778;9.166;2024-02-26T04:18:34;10.30;89.60
2913;DHT22;1466;48.778;9.166;2024-02-26T04:21:00;10.30;89.80
2913;DHT22;1466;48.778;9.166;2024-02-26T04:23:25;10.30;90.00
2913;DHT22;1466;48.778;9.166;2024-02-26T04:25:51;10.30;90.10
2913;DHT22;1466;48.778;9.166;2024-02-26T04:28:18;10.30;90.20
2913;DHT22;1466;48.778;9.166;2024-02-26T04:30:46;10.30;90.20
2913;DHT22;1466;48.778;9.166;2024-02-26T04:33:12;10.30;90.10
2913;DHT22;1466;48.778;9.166;2024-02-26T04:35:38;10.30;90.00
2913;DHT22;1466;48.778;9.166;2024-02-26T04:38:03;10.40;90.00
2913;DHT22;1466;48.778;9.166;2024-02-26T04:40:29;10.40;89.80
2913;DHT22;1466;48.778;9.166;2024-02-26T04:42:54;10.30;89.80
2913;DHT22;1466;48.778;9.166;2024-02-26T04:45:20;10.40;89.50
2913;DHT22;1466;48.778;9.166;2024-02-26T04:47:46;10.40;89.30
2913;DHT22;1466;48.778;9.166;2024-02-26T04:50:12;10.40;89.30
2913;DHT22;1466;48.778;9.166;2024-02-26T04:52:37;10.40;89.40
2913;DHT22;1466;48.778;9.166;2024-02-26T04:55:03;10.30;89.20
2913;DHT22;1466;48.778;9.166;2024-02-26T04:57:29;10.30;89.50
2913;DHT22;1466;48.778;9.166;2024-02-26T04:59:55;10.30;89.50
2913;DHT22;1466;48.778;9.166;2024-02-26T05:02:20;10.40;89.60
2913;DHT22;1466;48.778;9.166;2024-02-26T05:04:46;10.50;90.10
2913;DHT22;1466;48.778;9.166;2024-02-26T05:07:12;10.50;89.80
2913;DHT22;1466;48.778;9.166;2024-02-26T05:09:38;10.50;89.90
2913;DHT22;1466;48.778;9.166;2024-02-26T05:12:04;10.60;90.00
2913;DHT22;1466;48.778;9.166;2024-02-26T05:14:29;10.50;89.70
2913;DHT22;1466;48.778;9.166;2024-02-26T05:16:55;10.70;89.60
2913;DHT22;1466;48.778;9.166;2024-02-26T05:19:21;10.60;88.90
2913;DHT22;1466;48.778;9.166;2024-02-26T05:21:47;10.60;88.60
2913;DHT22;1466;48.778;9.166;2024-02-26T05:24:14;10.60;88.20
2913;DHT22;1466;48.778;9.166;2024-02-26T05:26:43;10.60;87.90
2913;DHT22;1466;48.778;9.166;2024-02-26T05:29:08;10.60;87.80
2913;DHT22;1466;48.778;9.166;2024-02-26T05:31:34;10.60;87.80
2913;DHT22;1466;48.778;9.166;2024-02-26T05:33:59;10.70;87.90
2913;DHT22;1466;48.778;9.166;2024-02-26T05:36:25;10.70;87.70
2913;DHT22;1466;48.778;9.166;2024-02-26T05:38:51;10.70;87.70
2913;DHT22;1466;48.778;9.166;2024-02-26T05:41:17;10.70;87.80
2913;DHT22;1466;48.778;9.166;2024-02-26T05:43:49;10.70;87.70
2913;DHT22;1466;48.778;9.166;2024-02-26T05:46:17;10.70;88.20
2913;DHT22;1466;48.778;9.166;2024-02-26T05:48:44;10.60;88.40
2913;DHT22;1466;48.778;9.166;2024-02-26T05:51:09;10.60;88.60
2913;DHT22;1466;48.778;9.166;2024-02-26T05:53:35;10.60;88.90
2913;DHT22;1466;48.778;9.166;2024-02-26T05:56:00;10.50;89.70
2913;DHT22;1466;48.778;9.166;2024-02-26T05:58:26;10.50;90.30
2913;DHT22;1466;48.778;9.166;2024-02-26T06:00:51;10.50;90.40
2913;DHT22;1466;48.778;9.166;2024-02-26T06:03:17;10.50;90.60
2913;DHT22;1466;48.778;9.166;2024-02-26T06:05:43;10.50;90.80
2913;DHT22;1466;48.778;9.166;2024-02-26T06:08:09;10.40;90.90
2913;DHT22;1466;48.778;9.166;2024-02-26T06:10:34;10.40;91.10
2913;DHT22;1466;48.778;9.166;2024-02-26T06:13:00;10.30;91.30
2913;DHT22;1466;48.778;9.166;2024-02-26T06:15:26;10.40;91.30
2913;DHT22;1466;48.778;9.166;2024-02-26T06:17:51;10.40;91.40
2913;DHT22;1466;48.778;9.166;2024-02-26T06:20:17;10.30;91.50
2913;DHT22;1466;48.778;9.166;2024-02-26T06:22:45;10.40;91.60
2913;DHT22;1466;48.778;9.166;2024-02-26T06:25:10;10.40;91.50
2913;DHT22;1466;48.778;9.166;2024-02-26T06:27:36;10.40;91.50
2913;DHT22;1466;48.778;9.166;2024-02-26T06:30:02;10.40;91.70
2913;DHT22;1466;48.778;9.166;2024-02-26T06:32:28;10.50;91.80
2913;DHT22;1466;48.778;9.166;2024-02-26T06:34:55;10.50;91.70
2913;DHT22;1466;48.778;9.166;2024-02-26T06:37:20;10.50;91.70
2913;DHT22;1466;48.778;9.166;2024-02-26T06:39:46;10.50;92.00
2913;DHT22;1466;48.778;9.166;2024-02-26T06:42:11;10.50;92.50
2913;DHT22;1466;48.778;9.166;2024-02-26T06:44:37;10.40;92.50
2913;DHT22;1466;48.778;9.166;2024-02-26T06:47:03;10.40;92.60
2913;DHT22;1466;48.778;9.166;2024-02-26T06:49:29;10.40;92.70
2913;DHT22;1466;48.778;9.166;2024-02-26T06:51:55;10.30;92.90
2913;DHT22;1466;48.778;9.166;2024-02-26T06:54:21;10.30;93.00
2913;DHT22;1466;48.778;9.166;2024-02-26T06:56:46;10.30;93.30
2913;DHT22;1466;48.778;9.166;2024-02-26T06:59:12;10.30;93.30
2913;DHT22;1466;48.778;9.166;2024-02-26T07:01:43;10.30;93.50
2913;DHT22;1466;48.778;9.166;2024-02-26T07:04:08;10.30;93.80
2913;DHT22;1466;48.778;9.166;2024-02-26T07:06:36;10.30;94.00
2913;DHT22;1466;48.778;9.166;2024-02-26T07:09:01;10.30;94.10
2913;DHT22;1466;48.778;9.166;2024-02-26T07:11:27;10.40;94.20
2913;DHT22;1466;48.778;9.166;2024-02-26T07:13:53;10.40;94.40
2913;DHT22;1466;48.778;9.166;2024-02-26T07:16:18;10.50;94.40
2913;DHT22;1466;48.778;9.166;2024-02-26T07:18:44;10.50;94.30
2913;DHT22;1466;48.778;9.166;2024-02-26T07:21:09;10.50;94.30
2913;DHT22;1466;48.778;9.166;2024-02-26T07:23:36;10.50;94.10
2913;DHT22;1466;48.778;9.166;2024-02-26T07:26:02;10.60;94.20
2913;DHT22;1466;48.778;9.166;2024-02-26T07:28:28;10.60;94.10
2913;DHT22;1466;48.778;9.166;2024-02-26T07:30:53;10.60;94.00
2913;DHT22;1466;48.778;9.166;2024-02-26T07:33:19;10.70;93.90
2913;DHT22;1466;48.778;9.166;2024-02-26T07:35:44;10.70;93.80
2913;DHT22;1466;48.778;9.166;2024-02-26T07:38:10;10.80;93.90
2913;DHT22;1466;48.778;9.166;2024-02-26T07:40:35;10.80;93.60
2913;DHT22;1466;48.778;9.166;2024-02-26T07:43:01;10.80;93.60
2913;DHT22;1466;48.778;9.166;2024-02-26T07:45:27;10.80;93.50
2913;DHT22;1466;48.778;9.166;2024-02-26T07:47:52;10.70;93.50
2913;DHT22;1466;48.778;9.166;2024-02-26T07:50:18;10.80;93.60
2913;DHT22;1466;48.778;9.166;2024-02-26T07:52:45;10.90;93.60
2913;DHT22;1466;48.778;9.166;2024-02-26T07:55:11;10.90;93.60
2913;DHT22;1466;48.778;9.166;2024-02-26T07:57:36;10.90;93.50
2913;DHT22;1466;48.778;9.166;2024-02-26T08:00:03;10.90;93.40
2913;DHT22;1466;48.778;9.166;2024-02-26T08:02:29;10.90;93.40
2913;DHT22;1466;48.778;9.166;2024-02-26T08:04:54;10.90;93.50
2913;DHT22;1466;48.778;9.166;2024-02-26T08:07:20;11.00;93.40
2913;DHT22;1466;48.778;9.166;2024-02-26T08:09:47;11.00;93.40
2913;DHT22;1466;48.778;9.166;2024-02-26T08:12:12;11.10;93.50
2913;DHT22;1466;48.778;9.166;2024-02-26T08:14:38;11.10;93.20
2913;DHT22;1466;48.778;9.166;2024-02-26T08:17:04;11.20;93.00
2913;DHT22;1466;48.778;9.166;2024-02-26T08:19:29;11.20;93.00
2913;DHT22;1466;48.778;9.166;2024-02-26T08:21:55;11.30;92.80
2913;DHT22;1466;48.778;9.166;2024-02-26T08:24:20;11.20;92.60
2913;DHT22;1466;48.778;9.166;2024-02-26T08:26:46;11.20;92.40
2913;DHT22;1466;48.778;9.166;2024-02-26T08:29:12;11.10;92.30
2913;DHT22;1466;48.778;9.166;2024-02-26T08:31:37;11.10;92.20
2913;DHT22;1466;48.778;9.166;2024-02-26T08:34:04;11.00;91.90
2913;DHT22;1466;48.778;9.166;2024-02-26T08:36:31;10.90;91.90
2913;DHT22;1466;48.778;9.166;2024-02-26T08:38:57;10.90;91.50
2913;DHT22;1466;48.778;9.166;2024-02-26T08:41:23;10.80;90.90
2913;DHT22;1466;48.778;9.166;2024-02-26T08:43:48;10.80;90.90
2913;DHT22;1466;48.778;9.166;2024-02-26T08:46:14;10.90;90.80
2913;DHT22;1466;48.778;9.166;2024-02-26T08:48:40;11.00;90.90
2913;DHT22;1466;48.778;9.166;2024-02-26T08:51:09;11.10;90.60
2913;DHT22;1466;48.778;9.166;2024-02-26T08:53:36;11.10;90.40
2913;DHT22;1466;48.778;9.166;2024-02-26T08:56:02;11.20;90.40
2913;DHT22;1466;48.778;9.166;2024-02-26T08:58:28;11.40;90.40
2913;DHT22;1466;48.778;9.166;2024-02-26T09:00:54;11.40;90.20
2913;DHT22;1466;48.778;9.166;2024-02-26T09:03:20;11.50;90.20
2913;DHT22;1466;48.778;9.166;2024-02-26T09:05:45;11.60;90.00
2913;DHT22;1466;48.778;9.166;2024-02-26T09:08:11;11.70;90.00
2913;DHT22;1466;48.778;9.166;2024-02-26T09:10:37;11.80;89.70
2913;DHT22;1466;48.778;9.166;2024-02-26T09:13:03;11.90;89.30
2913;DHT22;1466;48.778;9.166;2024-02-26T09:15:29;11.90;88.70
2913;DHT22;1466;48.778;9.166;2024-02-26T09:17:54;11.90;88.20
2913;DHT22;1466;48.778;9.166;2024-02-26T09:20:21;12.00;88.30
2913;DHT22;1466;48.778;9.166;2024-02-26T09:22:47;12.00;88.00
2913;DHT22;1466;48.778;9.166;2024-02-26T09:25:13;12.00;87.70
2913;DHT22;1466;48.778;9.166;2024-02-26T09:27:41;11.90;87.60
2913;DHT22;1466;48.778;9.166;2024-02-26T09:30:08;11.90;87.90
2913;DHT22;1466;48.778;9.166;2024-02-26T09:32:33;11.90;88.20
2913;DHT22;1466;48.778;9.166;2024-02-26T09:34:59;11.90;88.40
2913;DHT22;1466;48.778;9.166;2024-02-26T09:37:25;11.80;87.90
2913;DHT22;1466;48.778;9.166;2024-02-26T09:39:50;11.70;87.80
2913;DHT22;1466;48.778;9.166;2024-02-26T09:42:18;11.60;88.20
2913;DHT22;1466;48.778;9.166;2024-02-26T09:44:44;11.60;88.50
2913;DHT22;1466;48.778;9.166;2024-02-26T09:47:11;11.70;88.60
2913;DHT22;1466;48.778;9.166;2024-02-26T09:49:39;11.70;88.40
2913;DHT22;1466;48.778;9.166;2024-02-26T09:52:05;11.80;88.50
2913;DHT22;1466;48.778;9.166;2024-02-26T09:54:32;11.80;88.30
2913;DHT22;1466;48.778;9.166;2024-02-26T09:57:02;11.90;88.60
2913;DHT22;1466;48.778;9.166;2024-02-26T09:59:31;12.00;88.80
2913;DHT22;1466;48.778;9.166;2024-02-26T10:02:01;12.10;88.70
2913;DHT22;1466;48.778;9.166;2024-02-26T10:04:28;12.20;88.60
2913;DHT22;1466;48.778;9.166;2024-02-26T10:06:54;12.40;88.40
2913;DHT22;1466;48.778;9.166;2024-02-26T10:09:20;12.60;88.20
2913;DHT22;1466;48.778;9.166;2024-02-26T10:11:47;12.70;87.70
2913;DHT22;1466;48.778;9.166;2024-02-26T10:14:14;12.70;87.40
2913;DHT22;1466;48.778;9.166;2024-02-26T10:16:41;12.70;87.50
2913;DHT22;1466;48.778;9.166;2024-02-26T10:19:07;12.70;87.40
2913;DHT22;1466;48.778;9.166;2024-02-26T10:21:33;12.70;86.90
2913;DHT22;1466;48.778;9.166;2024-02-26T10:23:58;12.80;87.30
2913;DHT22;1466;48.778;9.166;2024-02-26T10:26:24;12.90;86.80
2913;DHT22;1466;48.778;9.166;2024-02-26T10:28:50;13.00;86.60
2913;DHT22;1466;48.778;9.166;2024-02-26T10:31:15;13.10;86.00
2913;DHT22;1466;48.778;9.166;2024-02-26T10:33:42;13.20;85.30
2913;DHT22;1466;48.778;9.166;2024-02-26T10:36:08;13.20;85.00
2913;DHT22;1466;48.778;9.166;2024-02-26T10:38:35;13.20;85.30
2913;DHT22;1466;48.778;9.166;2024-02-26T10:41:05;13.20;85.50
2913;DHT22;1466;48.778;9.166;2024-02-26T10:43:31;13.30;85.50
2913;DHT22;1466;48.778;9.166;2024-02-26T10:45:57;13.30;86.10
2913;DHT22;1466;48.778;9.166;2024-02-26T10:48:23;13.40;85.30
2913;DHT22;1466;48.778;9.166;2024-02-26T10:50:49;13.40;85.00
2913;DHT22;1466;48.778;9.166;2024-02-26T10:53:17;13.40;84.60
2913;DHT22;1466;48.778;9.166;2024-02-26T10:56:00;13.50;85.20
2913;DHT22;1466;48.778;9.166;2024-02-26T10:58:27;13.50;84.60
2913;DHT22;1466;48.778;9.166;2024-02-26T11:00:56;13.50;84.60
2913;DHT22;1466;48.778;9.166;2024-02-26T11:03:22;13.60;84.30
2913;DHT22;1466;48.778;9.166;2024-02-26T11:05:49;13.70;84.00
2913;DHT22;1466;48.778;9.166;2024-02-26T11:08:19;13.80;84.10
2913;DHT22;1466;48.778;9.166;2024-02-26T11:10:55;13.80;83.50
2913;DHT22;1466;48.778;9.166;2024-02-26T11:13:21;13.80;83.10
2913;DHT22;1466;48.778;9.166;2024-02-26T11:15:49;13.90;82.80
2913;DHT22;1466;48.778;9.166;2024-02-26T11:18:15;14.00;82.50
2913;DHT22;1466;48.778;9.166;2024-02-26T11:20:44;14.20;81.60
2913;DHT22;1466;48.778;9.166;2024-02-26T11:23:11;14.10;80.50
2913;DHT22;1466;48.778;9.166;2024-02-26T11:25:37;14.10;80.60
2913;DHT22;1466;48.778;9.166;2024-02-26T11:28:06;14.00;80.80
2913;DHT22;1466;48.778;9.166;2024-02-26T11:30:36;14.00;80.80
2913;DHT22;1466;48.778;9.166;2024-02-26T11:33:06;14.00;81.00
2913;DHT22;1466;48.778;9.166;2024-02-26T11:35:34;13.90;80.70
2913;DHT22;1466;48.778;9.166;2024-02-26T11:38:01;13.90;80.90
2913;DHT22;1466;48.778;9.166;2024-02-26T11:40:27;13.90;80.80
2913;DHT22;1466;48.778;9.166;2024-02-26T11:42:54;13.80;80.80
2913;DHT22;1466;48.778;9.166;2024-02-26T11:48:21;13.80;80.90
2913;DHT22;1466;48.778;9.166;2024-02-26T11:50:57;13.90;80.90
2913;DHT22;1466;48.778;9.166;2024-02-26T11:58:42;14.00;80.90
2913;DHT22;1466;48.778;9.166;2024-02-26T12:01:46;14.10;80.70
2913;DHT22;1466;48.778;9.166;2024-02-26T12:04:27;14.20;80.70
2913;DHT22;1466;48.778;9.166;2024-02-26T12:06:58;14.20;80.50
2913;DHT22;1466;48.778;9.166;2024-02-26T12:12:13;14.20;81.00
2913;DHT22;1466;48.778;9.166;2024-02-26T12:14:58;14.20;81.10
2913;DHT22;1466;48.778;9.166;2024-02-26T12:17:25;14.20;80.90
2913;DHT22;1466;48.778;9.166;2024-02-26T12:19:51;14.20;81.00
2913;DHT22;1466;48.778;9.166;2024-02-26T12:22:18;14.20;81.50
2913;DHT22;1466;48.778;9.166;2024-02-26T12:24:44;14.30;81.60
2913;DHT22;1466;48.778;9.166;2024-02-26T12:27:10;14.30;81.40
2913;DHT22;1466;48.778;9.166;2024-02-26T12:29:36;14.20;81.30
2913;DHT22;1466;48.778;9.166;2024-02-26T12:32:03;14.20;81.30
2913;DHT22;1466;48.778;9.166;2024-02-26T12:34:29;14.20;81.50
2913;DHT22;1466;48.778;9.166;2024-02-26T12:36:56;14.30;81.70
2913;DHT22;1466;48.778;9.166;2024-02-26T12:39:22;14.40;81.80
2913;DHT22;1466;48.778;9.166;2024-02-26T12:41:48;14.50;81.70
2913;DHT22;1466;48.778;9.166;2024-02-26T12:44:18;14.50;81.60
2913;DHT22;1466;48.778;9.166;2024-02-26T12:46:44;14.50;81.50
2913;DHT22;1466;48.778;9.166;2024-02-26T12:49:14;14.70;81.80
2913;DHT22;1466;48.778;9.166;2024-02-26T12:51:41;14.90;81.40
2913;DHT22;1466;48.778;9.166;2024-02-26T12:54:07;14.90;80.90
2913;DHT22;1466;48.778;9.166;2024-02-26T12:56:34;14.90;80.80
2913;DHT22;1466;48.778;9.166;2024-02-26T12:59:00;14.80;80.70
2913;DHT22;1466;48.778;9.166;2024-02-26T13:01:27;14.80;80.70
2913;DHT22;1466;48.778;9.166;2024-02-26T13:03:53;14.80;80.90
2913;DHT22;1466;48.778;9.166;2024-02-26T13:06:19;14.90;81.00
2913;DHT22;1466;48.778;9.166;2024-02-26T13:08:47;14.90;81.00
2913;DHT22;1466;48.778;9.166;2024-02-26T13:11:13;15.00;81.00
2913;DHT22;1466;48.778;9.166;2024-02-26T13:13:39;15.10;81.00
2913;DHT22;1466;48.778;9.166;2024-02-26T13:16:07;15.10;80.60
2913;DHT22;1466;48.778;9.166;2024-02-26T13:18:33;15.10;80.60
2913;DHT22;1466;48.778;9.166;2024-02-26T13:21:19;15.10;80.20
2913;DHT22;1466;48.778;9.166;2024-02-26T13:23:52;15.00;79.90
2913;DHT22;1466;48.778;9.166;2024-02-26T13:26:22;15.00;80.20
2913;DHT22;1466;48.778;9.166;2024-02-26T13:28:59;15.10;80.50
2913;DHT22;1466;48.778;9.166;2024-02-26T13:31:25;15.00;80.20
2913;DHT22;1466;48.778;9.166;2024-02-26T13:33:50;15.20;79.80
2913;DHT22;1466;48.778;9.166;2024-02-26T13:36:18;15.10;79.40
2913;DHT22;1466;48.778;9.166;2024-02-26T13:38:52;15.20;79.60
2913;DHT22;1466;48.778;9.166;2024-02-26T13:41:18;15.20;78.10
2913;DHT22;1466;48.778;9.166;2024-02-26T13:43:44;15.20;78.20
2913;DHT22;1466;48.778;9.166;2024-02-26T13:46:10;15.20;78.00
2913;DHT22;1466;48.778;9.166;2024-02-26T13:48:36;15.30;77.60
2913;DHT22;1466;48.778;9.166;2024-02-26T13:51:02;15.20;77.20
2913;DHT22;1466;48.778;9.166;2024-02-26T13:53:28;15.20;76.80
2913;DHT22;1466;48.778;9.166;2024-02-26T13:55:54;15.20;76.50
2913;DHT22;1466;48.778;9.166;2024-02-26T13:58:19;15.30;76.70
2913;DHT22;1466;48.778;9.166;2024-02-26T14:00:49;15.30;76.90
2913;DHT22;1466;48.778;9.166;2024-02-26T14:03:14;15.30;77.20
2913;DHT22;1466;48.778;9.166;2024-02-26T14:05:41;15.40;77.60
2913;DHT22;1466;48.778;9.166;2024-02-26T14:08:07;15.30;78.30
2913;DHT22;1466;48.778;9.166;2024-02-26T14:10:33;15.40;79.00
2913;DHT22;1466;48.778;9.166;2024-02-26T14:12:59;15.40;79.50
2913;DHT22;1466;48.778;9.166;2024-02-26T14:15:25;15.30;79.50
2913;DHT22;1466;48.778;9.166;2024-02-26T14:17:54;15.40;79.50
2913;DHT22;1466;48.778;9.166;2024-02-26T14:20:22;15.40;78.70
2913;DHT22;1466;48.778;9.166;2024-02-26T14:22:49;15.30;78.30
2913;DHT22;1466;48.778;9.166;2024-02-26T14:25:16;15.40;78.40
2913;DHT22;1466;48.778;9.166;2024-02-26T14:27:42;15.40;78.70
2913;DHT22;1466;48.778;9.166;2024-02-26T14:30:08;15.40;78.90
2913;DHT22;1466;48.778;9.166;2024-02-26T14:32:34;15.30;79.40
2913;DHT22;1466;48.778;9.166;2024-02-26T14:35:02;15.30;79.70
2913;DHT22;1466;48.778;9.166;2024-02-26T14:37:28;15.30;79.80
2913;DHT22;1466;48.778;9.166;2024-02-26T14:39:54;15.30;79.30
2913;DHT22;1466;48.778;9.166;2024-02-26T14:42:19;15.30;78.40
2913;DHT22;1466;48.778;9.166;2024-02-26T14:44:45;15.30;78.20
2913;DHT22;1466;48.778;9.166;2024-02-26T14:47:13;15.30;78.80
2913;DHT22;1466;48.778;9.166;2024-02-26T14:49:39;15.20;79.20
2913;DHT22;1466;48.778;9.166;2024-02-26T14:52:04;15.30;78.70
2913;DHT22;1466;48.778;9.166;2024-02-26T14:54:30;15.20;78.20
2913;DHT22;1466;48.778;9.166;2024-02-26T14:57:02;15.20;79.20
2913;DHT22;1466;48.778;9.166;2024-02-26T14:59:29;15.10;79.70
2913;DHT22;1466;48.778;9.166;2024-02-26T15:01:54;15.10;80.40
2913;DHT22;1466;48.778;9.166;2024-02-26T15:04:20;15.10;80.50
2913;DHT22;1466;48.778;9.166;2024-02-26T15:06:46;15.20;80.50
2913;DHT22;1466;48.778;9.166;2024-02-26T15:09:11;15.20;80.60
2913;DHT22;1466;48.778;9.166;2024-02-26T15:11:40;15.20;80.50
2913;DHT22;1466;48.778;9.166;2024-02-26T15:14:07;15.10;80.40
2913;DHT22;1466;48.778;9.166;2024-02-26T15:16:33;15.00;78.00
2913;DHT22;1466;48.778;9.166;2024-02-26T15:18:59;14.90;75.90
2913;DHT22;1466;48.778;9.166;2024-02-26T15:21:24;14.90;76.30
2913;DHT22;1466;48.778;9.166;2024-02-26T15:23:50;14.90;76.30
2913;DHT22;1466;48.778;9.166;2024-02-26T15:26:18;14.90;76.40
2913;DHT22;1466;48.778;9.166;2024-02-26T15:28:43;14.80;76.10
2913;DHT22;1466;48.778;9.166;2024-02-26T15:31:09;14.80;76.30
2913;DHT22;1466;48.778;9.166;2024-02-26T15:33:36;14.70;74.60
2913;DHT22;1466;48.778;9.166;2024-02-26T15:36:01;14.70;74.40
2913;DHT22;1466;48.778;9.166;2024-02-26T15:38:27;14.60;74.40
2913;DHT22;1466;48.778;9.166;2024-02-26T15:40:53;14.60;74.50
2913;DHT22;1466;48.778;9.166;2024-02-26T15:43:19;14.70;74.70
2913;DHT22;1466;48.778;9.166;2024-02-26T15:45:47;14.70;74.80
2913;DHT22;1466;48.778;9.166;2024-02-26T15:48:13;14.80;74.80
2913;DHT22;1466;48.778;9.166;2024-02-26T15:50:39;14.80;75.30
2913;DHT22;1466;48.778;9.166;2024-02-26T15:53:07;14.70;75.80
2913;DHT22;1466;48.778;9.166;2024-02-26T15:55:32;14.70;76.20
2913;DHT22;1466;48.778;9.166;2024-02-26T15:57:58;14.70;76.70
2913;DHT22;1466;48.778;9.166;2024-02-26T16:00:24;14.70;77.00
2913;DHT22;1466;48.778;9.166;2024-02-26T16:02:49;14.70;77.60
2913;DHT22;1466;48.778;9.166;2024-02-26T16:05:15;14.60;77.80
2913;DHT22;1466;48.778;9.166;2024-02-26T16:07:46;14.70;78.40